createdAt,value
2022-12-25T00:00:18.397Z,6.03
2022-12-25T00:03:08.334Z,6.19
2022-12-25T00:05:40.962Z,6.31
2022-12-25T00:08:10.465Z,6.42
2022-12-25T00:10:44.761Z,6.52
2022-12-25T00:13:15.531Z,6.61
2022-12-25T00:15:43.141Z,6.66
2022-12-25T00:18:10.863Z,6.68
2022-12-25T00:20:38.465Z,6.65
2022-12-25T00:23:06.085Z,6.63
2022-12-25T00:25:33.849Z,6.59
2022-12-25T00:28:01.421Z,6.55
2022-12-25T00:30:29.108Z,6.51
2022-12-25T00:32:56.722Z,6.48
2022-12-25T00:35:24.362Z,6.44
2022-12-25T00:37:51.995Z,6.43
2022-12-25T00:40:19.620Z,6.47
2022-12-25T00:42:51.025Z,6.52
2022-12-25T00:45:18.664Z,6.60
2022-12-25T00:47:46.725Z,6.67
2022-12-25T00:50:14.340Z,6.73
2022-12-25T00:52:42.022Z,6.75
2022-12-25T00:55:09.970Z,6.74
2022-12-25T00:57:37.562Z,6.71
2022-12-25T01:00:05.555Z,6.67
2022-12-25T01:02:33.277Z,6.65
2022-12-25T01:05:01.166Z,6.67
2022-12-25T01:07:28.858Z,6.69
2022-12-25T01:09:56.616Z,6.73
2022-12-25T01:12:24.591Z,6.77
2022-12-25T01:14:52.235Z,6.79
2022-12-25T01:17:19.890Z,6.78
2022-12-25T01:19:47.474Z,6.77
2022-12-25T01:22:15.535Z,6.76
2022-12-25T01:24:44.576Z,6.74
2022-12-25T01:27:12.429Z,6.69
2022-12-25T01:29:40.178Z,6.62
2022-12-25T01:32:08.352Z,6.56
2022-12-25T01:34:36.097Z,6.49
2022-12-25T01:37:03.915Z,6.43
2022-12-25T01:39:31.632Z,6.39
2022-12-25T01:41:59.229Z,6.38
2022-12-25T01:44:36.029Z,6.38
2022-12-25T01:47:05.403Z,6.37
2022-12-25T01:49:37.498Z,6.34
2022-12-25T01:52:11.692Z,6.28
2022-12-25T01:54:44.521Z,6.22
2022-12-25T01:57:17.152Z,6.16
2022-12-25T01:59:45.887Z,6.11
2022-12-25T02:02:14.372Z,6.05
2022-12-25T02:04:48.428Z,6.00
2022-12-25T02:07:19.203Z,5.95
2022-12-25T02:09:47.522Z,5.89
2022-12-25T02:12:20.253Z,5.85
2022-12-25T02:14:50.179Z,5.80
2022-12-25T02:17:25.824Z,5.74
2022-12-25T02:20:25.536Z,5.72
2022-12-25T02:23:17.326Z,5.66
2022-12-25T02:25:53.443Z,5.60
2022-12-25T02:28:39.521Z,5.55
2022-12-25T02:31:17.749Z,5.50
2022-12-25T02:33:55.624Z,5.44
2022-12-25T02:36:29.558Z,5.40
2022-12-25T02:39:00.484Z,5.35
2022-12-25T02:41:30.725Z,5.31
2022-12-25T02:44:01.114Z,5.27
2022-12-25T02:46:31.731Z,5.23
2022-12-25T02:49:02.927Z,5.22
2022-12-25T02:51:36.018Z,5.21
2022-12-25T02:54:09.787Z,5.19
2022-12-25T02:56:40.340Z,5.18
2022-12-25T02:59:07.915Z,5.17
2022-12-25T03:01:37.579Z,5.17
2022-12-25T03:04:09.704Z,5.17
2022-12-25T03:06:40.418Z,5.16
2022-12-25T03:09:12.320Z,5.13
2022-12-25T03:11:39.822Z,5.11
2022-12-25T03:14:08.921Z,5.07
2022-12-25T03:16:36.576Z,5.05
2022-12-25T03:19:04.635Z,5.03
2022-12-25T03:21:32.200Z,5.00
2022-12-25T03:24:01.916Z,4.99
2022-12-25T03:26:30.077Z,4.96
2022-12-25T03:28:57.785Z,4.93
2022-12-25T03:31:35.032Z,4.88
2022-12-25T03:34:21.198Z,4.82
2022-12-25T03:37:02.856Z,4.77
2022-12-25T03:39:46.382Z,4.76
2022-12-25T03:42:16.765Z,4.72
2022-12-25T03:44:51.739Z,4.68
2022-12-25T03:47:33.283Z,4.64
2022-12-25T03:50:25.748Z,4.57
2022-12-25T03:52:56.332Z,4.53
2022-12-25T03:55:25.996Z,4.51
2022-12-25T03:57:53.605Z,4.47
2022-12-25T04:00:21.295Z,4.43
2022-12-25T04:02:48.956Z,4.40
2022-12-25T04:05:17.193Z,4.36
2022-12-25T04:07:44.839Z,4.36
2022-12-25T04:10:12.428Z,4.36
2022-12-25T04:12:40.170Z,4.37
2022-12-25T04:15:08.499Z,4.41
2022-12-25T04:17:36.293Z,4.44
2022-12-25T04:20:04.237Z,4.42
2022-12-25T04:22:31.832Z,4.44
2022-12-25T04:24:59.417Z,4.44
2022-12-25T04:27:27.053Z,4.42
2022-12-25T04:29:54.711Z,4.42
2022-12-25T04:32:22.454Z,4.41
2022-12-25T04:34:50.051Z,4.37
2022-12-25T04:37:17.796Z,4.33
2022-12-25T04:39:45.443Z,4.32
2022-12-25T04:42:13.031Z,4.34
2022-12-25T04:44:40.730Z,4.39
2022-12-25T04:47:11.513Z,4.41
2022-12-25T04:49:39.602Z,4.39
2022-12-25T04:52:07.359Z,4.35
2022-12-25T04:54:34.983Z,4.28
2022-12-25T04:57:02.549Z,4.24
2022-12-25T04:59:30.259Z,4.18
2022-12-25T05:01:57.993Z,4.15
2022-12-25T05:04:25.766Z,4.09
2022-12-25T05:06:53.449Z,4.02
2022-12-25T05:09:21.100Z,3.99
2022-12-25T05:11:48.699Z,3.99
2022-12-25T05:14:16.289Z,3.99
2022-12-25T05:16:44.110Z,3.97
2022-12-25T05:19:11.757Z,3.94
2022-12-25T05:21:39.363Z,3.89
2022-12-25T05:24:07.128Z,3.82
2022-12-25T05:26:34.713Z,3.79
2022-12-25T05:29:02.400Z,3.75
2022-12-25T05:31:30.782Z,3.73
2022-12-25T05:33:58.451Z,3.70
2022-12-25T05:36:26.035Z,3.63
2022-12-25T05:38:53.669Z,3.57
2022-12-25T05:41:21.286Z,3.53
2022-12-25T05:43:48.872Z,3.47
2022-12-25T05:46:16.587Z,3.43
2022-12-25T05:48:44.405Z,3.41
2022-12-25T05:51:14.360Z,3.39
2022-12-25T05:53:42.943Z,3.39
2022-12-25T05:56:10.627Z,3.39
2022-12-25T05:58:39.823Z,3.39
2022-12-25T06:01:20.423Z,3.38
2022-12-25T06:03:48.465Z,3.36
2022-12-25T06:06:16.175Z,3.32
2022-12-25T06:08:44.164Z,3.29
2022-12-25T06:11:13.635Z,3.25
2022-12-25T06:13:42.079Z,3.21
2022-12-25T06:16:12.056Z,3.15
2022-12-25T06:18:42.265Z,3.10
2022-12-25T06:21:12.269Z,3.06
2022-12-25T06:23:40.803Z,3.02
2022-12-25T06:26:14.873Z,2.99
2022-12-25T06:28:42.800Z,2.95
2022-12-25T06:31:14.011Z,2.93
2022-12-25T06:33:42.202Z,2.92
2022-12-25T06:36:22.310Z,2.93
2022-12-25T06:38:50.551Z,2.96
2022-12-25T06:41:21.216Z,2.98
2022-12-25T06:43:54.098Z,2.99
2022-12-25T06:46:23.348Z,3.01
2022-12-25T06:48:51.439Z,3.02
2022-12-25T06:51:22.770Z,3.03
2022-12-25T06:53:51.556Z,3.01
2022-12-25T06:56:21.505Z,3.00
2022-12-25T06:58:51.668Z,2.93
2022-12-25T07:01:32.116Z,2.86
2022-12-25T07:04:02.777Z,2.81
2022-12-25T07:06:30.690Z,2.83
2022-12-25T07:08:58.383Z,2.85
2022-12-25T07:11:26.198Z,2.89
2022-12-25T07:13:54.106Z,2.96
2022-12-25T07:16:21.740Z,3.05
2022-12-25T07:18:49.381Z,3.12
2022-12-25T07:21:19.660Z,3.17
2022-12-25T07:23:49.828Z,3.20
2022-12-25T07:26:18.192Z,3.28
2022-12-25T07:28:45.939Z,3.36
2022-12-25T07:31:15.651Z,3.44
2022-12-25T07:33:43.723Z,3.52
2022-12-25T07:36:13.297Z,3.64
2022-12-25T07:38:42.273Z,3.72
2022-12-25T07:41:12.620Z,3.80
2022-12-25T07:43:40.464Z,3.89
2022-12-25T07:46:09.099Z,3.94
2022-12-25T07:48:36.912Z,3.97
2022-12-25T07:51:10.649Z,3.99
2022-12-25T07:53:39.027Z,4.01
2022-12-25T07:56:11.458Z,4.08
2022-12-25T07:58:39.182Z,4.20
2022-12-25T08:01:10.392Z,4.34
2022-12-25T08:03:38.369Z,4.46
2022-12-25T08:06:08.715Z,4.53
2022-12-25T08:08:38.000Z,4.62
2022-12-25T08:11:10.135Z,4.73
2022-12-25T08:13:38.307Z,4.84
2022-12-25T08:16:08.592Z,4.93
2022-12-25T08:18:37.757Z,5.01
2022-12-25T08:21:08.678Z,5.07
2022-12-25T08:23:39.089Z,5.09
2022-12-25T08:26:08.386Z,5.13
2022-12-25T08:28:36.728Z,5.21
2022-12-25T08:31:08.635Z,5.27
2022-12-25T08:33:37.592Z,5.36
2022-12-25T08:36:09.427Z,5.48
2022-12-25T08:38:37.286Z,5.61
2022-12-25T08:41:05.252Z,5.77
2022-12-25T08:43:32.857Z,5.92
2022-12-25T08:46:00.930Z,6.08
2022-12-25T08:48:28.746Z,6.25
2022-12-25T08:50:56.718Z,6.56
2022-12-25T08:53:24.395Z,7.23
2022-12-25T08:56:02.528Z,7.55
2022-12-25T08:58:30.293Z,7.53
2022-12-25T09:00:57.984Z,7.86
2022-12-25T09:03:26.263Z,8.07
2022-12-25T09:05:54.567Z,8.24
2022-12-25T09:08:22.314Z,8.42
2022-12-25T09:10:49.971Z,8.44
2022-12-25T09:13:17.613Z,8.46
2022-12-25T09:15:45.384Z,9.55
2022-12-25T09:18:13.414Z,11.64
2022-12-25T09:20:41.086Z,13.10
2022-12-25T09:23:13.529Z,13.66
2022-12-25T09:25:41.491Z,14.66
2022-12-25T09:28:09.223Z,14.39
2022-12-25T09:30:36.929Z,13.73
2022-12-25T09:33:04.744Z,13.18
2022-12-25T09:35:32.410Z,12.71
2022-12-25T09:38:00.157Z,12.23
2022-12-25T09:40:30.891Z,11.77
2022-12-25T09:43:00.004Z,11.39
2022-12-25T09:45:33.842Z,11.14
2022-12-25T09:48:01.536Z,10.99
2022-12-25T09:50:54.554Z,10.88
2022-12-25T09:53:28.484Z,10.77
2022-12-25T09:56:06.592Z,11.02
2022-12-25T09:58:34.561Z,12.50
2022-12-25T10:01:19.462Z,14.03
2022-12-25T10:04:05.503Z,13.96
2022-12-25T10:06:52.329Z,13.80
2022-12-25T10:09:32.259Z,14.29
2022-12-25T10:12:27.948Z,14.12
2022-12-25T10:15:21.875Z,14.23
2022-12-25T10:18:01.461Z,16.60
2022-12-25T10:20:50.701Z,18.44
2022-12-25T10:23:25.616Z,19.72
2022-12-25T10:25:54.090Z,21.66
2022-12-25T10:28:39.847Z,23.13
2022-12-25T10:31:26.331Z,24.92
2022-12-25T10:33:54.255Z,26.87
2022-12-25T10:36:25.475Z,27.84
2022-12-25T10:38:54.571Z,28.47
2022-12-25T10:41:37.792Z,29.92
2022-12-25T10:44:16.204Z,31.19
2022-12-25T10:46:48.999Z,31.90
2022-12-25T10:49:20.306Z,32.41
2022-12-25T10:51:48.383Z,32.73
2022-12-25T10:54:27.808Z,33.27
2022-12-25T10:56:56.556Z,33.92
2022-12-25T10:59:29.509Z,34.72
2022-12-25T11:02:11.809Z,35.15
2022-12-25T11:04:39.630Z,35.70
2022-12-25T11:07:19.082Z,36.23
2022-12-25T11:09:59.363Z,35.94
2022-12-25T11:12:45.262Z,35.49
2022-12-25T11:15:31.703Z,34.68
2022-12-25T11:17:59.459Z,33.21
2022-12-25T11:20:27.313Z,31.45
2022-12-25T11:22:54.984Z,30.03
2022-12-25T11:25:27.631Z,29.26
2022-12-25T11:28:01.293Z,29.23
2022-12-25T11:30:32.540Z,29.48
2022-12-25T11:33:10.689Z,29.77
2022-12-25T11:35:52.315Z,30.42
2022-12-25T11:38:19.919Z,31.32
2022-12-25T11:41:01.104Z,32.01
2022-12-25T11:43:49.051Z,32.15
2022-12-25T11:46:25.363Z,31.80
2022-12-25T11:49:07.391Z,31.66
2022-12-25T11:51:39.246Z,31.69
2022-12-25T11:54:30.699Z,32.37
2022-12-25T11:57:02.291Z,33.48
2022-12-25T11:59:47.780Z,34.22
2022-12-25T12:02:42.411Z,34.79
2022-12-25T12:05:25.571Z,34.91
2022-12-25T12:08:06.189Z,34.64
2022-12-25T12:10:58.240Z,34.18
2022-12-25T12:13:59.029Z,33.35
2022-12-25T12:16:26.833Z,32.51
2022-12-25T12:18:54.489Z,31.37
2022-12-25T12:21:27.539Z,30.14
2022-12-25T12:24:09.536Z,28.84
2022-12-25T12:26:40.533Z,27.70
2022-12-25T12:29:24.459Z,26.69
2022-12-25T12:31:53.554Z,25.94
2022-12-25T12:34:41.644Z,25.19
2022-12-25T12:37:25.211Z,24.09
2022-12-25T12:39:54.641Z,22.84
2022-12-25T12:42:26.020Z,21.77
2022-12-25T12:44:56.727Z,20.68
2022-12-25T12:47:45.059Z,19.88
2022-12-25T12:50:36.275Z,19.09
2022-12-25T12:53:22.326Z,18.43
2022-12-25T12:55:51.717Z,17.91
2022-12-25T12:58:36.820Z,17.52
2022-12-25T13:01:13.391Z,17.04
2022-12-25T13:03:50.143Z,16.61
2022-12-25T13:06:26.023Z,16.19
2022-12-25T13:09:15.086Z,15.81
2022-12-25T13:11:44.291Z,15.47
2022-12-25T13:14:16.445Z,15.20
2022-12-25T13:16:46.729Z,14.94
2022-12-25T13:19:16.310Z,14.67
2022-12-25T13:21:53.009Z,14.43
2022-12-25T13:24:25.398Z,14.22
2022-12-25T13:26:53.112Z,14.03
2022-12-25T13:29:35.033Z,13.85
2022-12-25T13:32:05.486Z,13.72
2022-12-25T13:34:37.271Z,13.60
2022-12-25T13:37:15.372Z,13.53
2022-12-25T13:39:55.278Z,13.41
2022-12-25T13:42:26.443Z,13.23
2022-12-25T13:45:00.591Z,13.09
2022-12-25T13:47:39.115Z,12.99
2022-12-25T13:50:14.450Z,12.89
2022-12-25T13:52:42.534Z,12.81
2022-12-25T13:55:16.965Z,12.73
2022-12-25T13:57:51.744Z,12.66
2022-12-25T14:00:32.136Z,12.62
2022-12-25T14:03:00.453Z,12.55
2022-12-25T14:05:37.890Z,12.48
2022-12-25T14:08:25.128Z,12.42
2022-12-25T14:10:54.514Z,12.36
2022-12-25T14:13:26.065Z,12.33
2022-12-25T14:15:55.041Z,12.28
2022-12-25T14:18:24.705Z,12.19
2022-12-25T14:20:59.784Z,12.09
2022-12-25T14:23:45.101Z,11.97
2022-12-25T14:26:21.481Z,11.85
2022-12-25T14:28:54.918Z,11.74
2022-12-25T14:31:23.742Z,11.66
2022-12-25T14:33:52.870Z,11.61
2022-12-25T14:36:21.061Z,11.54
2022-12-25T14:39:04.790Z,11.49
2022-12-25T14:41:38.403Z,11.43
2022-12-25T14:44:35.875Z,11.38
2022-12-25T14:47:18.631Z,11.30
2022-12-25T14:49:47.639Z,11.24
2022-12-25T14:52:26.619Z,11.18
2022-12-25T14:54:59.403Z,11.12
2022-12-25T14:57:37.489Z,11.10
2022-12-25T15:00:21.195Z,11.06
2022-12-25T15:02:50.416Z,11.03
2022-12-25T15:05:24.364Z,11.01
2022-12-25T15:08:20.484Z,11.00
2022-12-25T15:11:05.169Z,10.97
2022-12-25T15:13:32.999Z,10.95
2022-12-25T15:16:14.368Z,10.91
2022-12-25T15:18:45.321Z,10.89
2022-12-25T15:21:26.226Z,10.86
2022-12-25T15:23:55.049Z,10.80
2022-12-25T15:26:23.275Z,10.75
2022-12-25T15:28:51.333Z,10.70
2022-12-25T15:31:25.938Z,10.66
2022-12-25T15:33:56.721Z,10.59
2022-12-25T15:36:27.574Z,10.54
2022-12-25T15:38:56.224Z,10.49
2022-12-25T15:41:27.995Z,10.43
2022-12-25T15:43:55.614Z,10.38
2022-12-25T15:46:23.419Z,10.34
2022-12-25T15:48:52.916Z,10.31
2022-12-25T15:51:20.525Z,10.29
2022-12-25T15:53:48.314Z,10.28
2022-12-25T15:56:16.365Z,10.27
2022-12-25T15:58:44.015Z,10.25
2022-12-25T16:01:19.416Z,10.23
2022-12-25T16:03:47.856Z,10.21
2022-12-25T16:06:17.354Z,10.19
2022-12-25T16:08:45.850Z,10.17
2022-12-25T16:11:13.441Z,10.13
2022-12-25T16:13:41.301Z,10.12
2022-12-25T16:16:09.185Z,10.09
2022-12-25T16:18:39.666Z,10.07
2022-12-25T16:21:14.651Z,10.04
2022-12-25T16:23:42.715Z,10.02
2022-12-25T16:26:11.029Z,10.01
2022-12-25T16:28:38.654Z,10.00
2022-12-25T16:31:06.397Z,10.01
2022-12-25T16:33:34.070Z,10.02
2022-12-25T16:36:01.723Z,10.03
2022-12-25T16:38:29.382Z,10.04
2022-12-25T16:41:01.409Z,10.05
2022-12-25T16:43:29.075Z,10.06
2022-12-25T16:45:56.807Z,10.05
2022-12-25T16:48:25.751Z,10.06
2022-12-25T16:50:53.381Z,10.06
2022-12-25T16:53:20.969Z,10.06
2022-12-25T16:55:48.598Z,10.05
2022-12-25T16:58:16.304Z,10.04
2022-12-25T17:00:49.020Z,10.03
2022-12-25T17:03:17.291Z,9.99
2022-12-25T17:05:45.227Z,9.97
2022-12-25T17:08:12.867Z,9.96
2022-12-25T17:10:40.532Z,9.96
2022-12-25T17:13:08.159Z,9.97
2022-12-25T17:15:35.831Z,9.97
2022-12-25T17:18:03.612Z,9.95
2022-12-25T17:20:31.313Z,9.94
2022-12-25T17:22:58.920Z,9.94
2022-12-25T17:25:26.579Z,9.93
2022-12-25T17:27:55.602Z,9.92
2022-12-25T17:30:23.214Z,9.91
2022-12-25T17:32:50.854Z,9.92
2022-12-25T17:35:18.643Z,9.91
2022-12-25T17:37:46.267Z,9.88
2022-12-25T17:40:14.086Z,9.84
2022-12-25T17:42:41.703Z,9.81
2022-12-25T17:45:10.015Z,9.79
2022-12-25T17:47:37.699Z,9.78
2022-12-25T17:50:08.173Z,9.75
2022-12-25T17:52:35.898Z,9.74
2022-12-25T17:55:04.019Z,9.72
2022-12-25T17:57:31.663Z,9.70
2022-12-25T17:59:59.385Z,9.67
2022-12-25T18:02:27.154Z,9.62
2022-12-25T18:04:54.918Z,9.59
2022-12-25T18:07:22.577Z,9.56
2022-12-25T18:09:50.234Z,9.55
2022-12-25T18:12:17.867Z,9.53
2022-12-25T18:14:45.615Z,9.50
2022-12-25T18:17:13.224Z,9.49
2022-12-25T18:19:40.948Z,9.49
2022-12-25T18:22:08.652Z,9.51
2022-12-25T18:24:36.308Z,9.54
2022-12-25T18:27:03.978Z,9.57
2022-12-25T18:29:31.613Z,9.59
2022-12-25T18:31:59.331Z,9.61
2022-12-25T18:34:26.970Z,9.64
2022-12-25T18:36:54.569Z,9.65
2022-12-25T18:39:22.209Z,9.66
2022-12-25T18:41:49.797Z,9.66
2022-12-25T18:44:17.463Z,9.66
2022-12-25T18:46:45.495Z,9.65
2022-12-25T18:49:13.108Z,9.65
2022-12-25T18:51:40.768Z,9.65
2022-12-25T18:54:08.408Z,9.65
2022-12-25T18:56:36.071Z,9.65
2022-12-25T18:59:03.814Z,9.67
2022-12-25T19:01:31.550Z,9.65
2022-12-25T19:04:05.011Z,9.64
2022-12-25T19:06:33.822Z,9.61
2022-12-25T19:09:01.714Z,9.61
2022-12-25T19:11:29.349Z,9.60
2022-12-25T19:13:57.002Z,9.59
2022-12-25T19:16:24.641Z,9.59
2022-12-25T19:18:52.354Z,9.57
2022-12-25T19:21:20.015Z,9.53
2022-12-25T19:23:47.827Z,9.49
2022-12-25T19:26:15.780Z,9.46
2022-12-25T19:28:43.421Z,9.41
2022-12-25T19:31:11.261Z,9.39
2022-12-25T19:33:41.240Z,9.38
2022-12-25T19:36:12.005Z,9.38
2022-12-25T19:38:39.946Z,9.38
2022-12-25T19:41:16.298Z,9.36
2022-12-25T19:43:46.612Z,9.37
2022-12-25T19:46:25.213Z,9.38
2022-12-25T19:48:53.558Z,9.40
2022-12-25T19:51:27.353Z,9.39
2022-12-25T19:53:55.623Z,9.36
2022-12-25T19:56:24.628Z,9.34
2022-12-25T19:58:53.180Z,9.33
2022-12-25T20:01:22.908Z,9.31
2022-12-25T20:03:50.895Z,9.30
2022-12-25T20:06:27.822Z,9.30
2022-12-25T20:08:59.167Z,9.30
2022-12-25T20:11:29.095Z,9.31
2022-12-25T20:13:57.151Z,9.32
2022-12-25T20:16:25.937Z,9.31
2022-12-25T20:18:53.727Z,9.31
2022-12-25T20:21:22.777Z,9.30
2022-12-25T20:23:52.230Z,9.30
2022-12-25T20:26:22.839Z,9.30
2022-12-25T20:28:51.532Z,9.30
2022-12-25T20:31:31.319Z,9.28
2022-12-25T20:34:04.000Z,9.23
2022-12-25T20:36:36.813Z,9.20
2022-12-25T20:39:07.146Z,9.19
2022-12-25T20:41:35.825Z,9.20
2022-12-25T20:44:03.439Z,9.22
2022-12-25T20:46:31.233Z,9.24
2022-12-25T20:49:00.909Z,9.27
2022-12-25T20:51:28.690Z,9.26
2022-12-25T20:53:56.722Z,9.24
2022-12-25T20:56:26.218Z,9.20
2022-12-25T20:58:59.296Z,9.17
2022-12-25T21:01:30.458Z,9.14
2022-12-25T21:03:59.065Z,9.12
2022-12-25T21:06:26.871Z,9.11
2022-12-25T21:08:54.520Z,9.10
2022-12-25T21:11:22.169Z,9.10
2022-12-25T21:13:50.136Z,9.12
2022-12-25T21:16:21.355Z,9.13
2022-12-25T21:18:50.722Z,9.15
2022-12-25T21:21:19.517Z,9.15
2022-12-25T21:23:47.238Z,9.16
2022-12-25T21:26:23.068Z,9.16
2022-12-25T21:28:53.521Z,9.14
2022-12-25T21:31:21.919Z,9.10
2022-12-25T21:33:49.836Z,9.07
2022-12-25T21:36:20.131Z,9.04
2022-12-25T21:38:47.929Z,9.00
2022-12-25T21:41:18.583Z,8.95
2022-12-25T21:43:46.221Z,8.90
2022-12-25T21:46:14.963Z,8.87
2022-12-25T21:48:43.004Z,8.86
2022-12-25T21:51:17.677Z,8.87
2022-12-25T21:53:45.288Z,8.88
2022-12-25T21:56:13.018Z,8.90
2022-12-25T21:58:41.115Z,8.93
2022-12-25T22:01:09.509Z,8.97
2022-12-25T22:03:37.630Z,8.98
2022-12-25T22:06:05.968Z,9.01
2022-12-25T22:08:33.762Z,9.03
2022-12-25T22:11:04.380Z,9.03
2022-12-25T22:13:32.307Z,9.01
2022-12-25T22:16:04.955Z,8.99
2022-12-25T22:18:32.612Z,8.98
2022-12-25T22:21:00.200Z,8.97
2022-12-25T22:23:27.803Z,8.95
2022-12-25T22:25:55.456Z,8.94
2022-12-25T22:28:23.128Z,8.94
2022-12-25T22:30:50.722Z,8.92
2022-12-25T22:33:18.451Z,8.90
2022-12-25T22:35:46.071Z,8.90
2022-12-25T22:38:13.690Z,8.92
2022-12-25T22:40:41.325Z,8.93
2022-12-25T22:43:08.946Z,8.94
2022-12-25T22:45:36.590Z,8.93
2022-12-25T22:48:04.375Z,8.93
2022-12-25T22:50:32.005Z,8.92
2022-12-25T22:52:59.640Z,8.89
2022-12-25T22:55:27.280Z,8.88
2022-12-25T22:57:54.905Z,8.88
2022-12-25T23:00:22.583Z,8.86
2022-12-25T23:02:50.397Z,8.84
2022-12-25T23:05:18.347Z,8.83
2022-12-25T23:07:46.009Z,8.80
2022-12-25T23:10:13.686Z,8.77
2022-12-25T23:12:41.356Z,8.75
2022-12-25T23:15:09.425Z,8.73
2022-12-25T23:17:37.083Z,8.70
2022-12-25T23:20:05.660Z,8.67
2022-12-25T23:22:33.255Z,8.64
2022-12-25T23:25:00.924Z,8.62
2022-12-25T23:27:28.650Z,8.62
2022-12-25T23:29:56.248Z,8.61
2022-12-25T23:32:25.922Z,8.59
2022-12-25T23:34:55.132Z,8.58
2022-12-25T23:37:23.169Z,8.56
2022-12-25T23:39:50.876Z,8.55
2022-12-25T23:42:18.540Z,8.54
2022-12-25T23:44:46.258Z,8.53
2022-12-25T23:47:13.988Z,8.50
2022-12-25T23:49:41.714Z,8.47
2022-12-25T23:52:11.704Z,8.45
2022-12-25T23:54:39.607Z,8.41
2022-12-25T23:57:07.236Z,8.37
2022-12-25T23:59:34.891Z,8.33
